Time;durP1;ratioP1;P1;durP2;ratioP2;P2;SDS_P1;SDS_P2;PMS_P1;PMS_P2;Temp;Humidity;BMP_temperature;BMP_pressure;BME280_temperature;BME280_humidity;BME280_pressure;Samples;Min_cycle;Max_cycle;Signal;HPM_P1;HPM_P2
2023/04/29 00:02:17;;;;;;;12.90;5.97;;;;;;;9.96;100.00;98544.59;5011047;28;20061;-71
2023/04/29 00:04:43;;;;;;;13.23;6.63;;;;;;;9.95;100.00;98546.44;5020864;28;20037;-71
2023/04/29 00:07:08;;;;;;;9.10;5.15;;;;;;;9.86;100.00;98545.81;5011650;28;20446;-71
2023/04/29 00:09:33;;;;;;;11.00;6.30;;;;;;;9.86;100.00;98542.28;5001145;28;20420;-71
2023/04/29 00:11:58;;;;;;;10.38;5.78;;;;;;;9.96;100.00;98550.00;5011378;28;20038;-71
2023/04/29 00:14:24;;;;;;;9.98;6.15;;;;;;;9.90;100.00;98540.00;5010670;28;20026;-72
2023/04/29 00:16:49;;;;;;;9.75;6.28;;;;;;;9.94;100.00;98558.31;4997097;28;20403;-71
2023/04/29 00:19:14;;;;;;;11.32;5.97;;;;;;;9.86;100.00;98553.09;4999296;28;20026;-72
2023/04/29 00:21:40;;;;;;;10.27;6.10;;;;;;;9.82;100.00;98558.09;5011533;28;20091;-71
2023/04/29 00:24:05;;;;;;;7.90;5.72;;;;;;;9.69;100.00;98544.53;5011786;28;20030;-71
2023/04/29 00:26:31;;;;;;;14.40;6.18;;;;;;;9.70;100.00;98553.50;5010879;28;20085;-71
2023/04/29 00:28:56;;;;;;;8.75;5.80;;;;;;;9.61;100.00;98542.00;5006608;28;20117;-71
2023/04/29 00:31:21;;;;;;;11.02;6.03;;;;;;;9.65;100.00;98557.63;5011187;28;20030;-71
2023/04/29 00:33:47;;;;;;;8.93;5.88;;;;;;;9.63;100.00;98548.06;4996535;28;20053;-72
2023/04/29 00:36:12;;;;;;;10.02;5.60;;;;;;;9.66;100.00;98556.56;5002475;28;20388;-71
2023/04/29 00:38:37;;;;;;;11.40;5.28;;;;;;;9.72;100.00;98554.94;5010965;28;20060;-72
2023/04/29 00:41:02;;;;;;;7.57;4.72;;;;;;;9.50;100.00;98521.00;4993523;28;20025;-74
2023/04/29 00:43:28;;;;;;;8.82;5.65;;;;;;;9.77;100.00;98557.88;5010247;28;20171;-72
2023/04/29 00:45:53;;;;;;;10.00;5.90;;;;;;;9.67;100.00;98557.44;5007771;28;20510;-73
2023/04/29 00:48:18;;;;;;;13.68;5.88;;;;;;;9.63;100.00;98548.06;5012530;28;20026;-72
2023/04/29 00:50:44;;;;;;;10.55;5.60;;;;;;;9.56;100.00;98555.28;5019932;28;20077;-71
2023/04/29 00:53:11;;;;;;;8.43;5.22;;;;;;;9.50;100.00;98545.31;5014337;28;20088;-73
2023/04/29 00:55:37;;;;;;;8.75;5.47;;;;;;;9.42;100.00;98557.13;5011702;28;20033;-70
2023/04/29 00:58:03;;;;;;;12.25;5.43;;;;;;;9.31;100.00;98558.53;5011474;28;20017;-71
2023/04/29 01:00:29;;;;;;;7.88;5.30;;;;;;;9.22;100.00;98559.72;5010115;28;20034;-71
2023/04/29 01:02:55;;;;;;;7.65;4.85;;;;;;;9.19;100.00;98562.84;5006485;28;20029;-71
2023/04/29 01:05:24;;;;;;;6.75;4.75;;;;;;;9.21;100.00;98563.47;5009715;28;20119;-71
2023/04/29 01:08:28;;;;;;;8.15;4.90;;;;;;;9.24;100.00;98567.63;5008202;28;20468;-72
2023/04/29 01:11:03;;;;;;;10.95;5.78;;;;;;;9.40;100.00;98565.41;4984040;28;20105;-72
2023/04/29 01:13:59;;;;;;;10.20;6.40;;;;;;;9.57;100.00;98567.78;5004756;28;20036;-72
2023/04/29 01:16:43;;;;;;;13.38;5.95;;;;;;;9.26;100.00;98566.41;4985882;28;20088;-72
2023/04/29 01:19:34;;;;;;;9.23;5.70;;;;;;;9.30;100.00;98556.88;5018117;28;20029;-71
2023/04/29 01:22:00;;;;;;;9.30;5.43;;;;;;;9.28;100.00;98564.34;4992230;28;20037;-73
2023/04/29 01:24:25;;;;;;;9.55;5.80;;;;;;;9.20;100.00;98569.91;5013153;28;20026;-72
2023/04/29 01:26:57;;;;;;;7.78;5.10;;;;;;;9.14;100.00;98568.00;4999458;28;20053;-71
2023/04/29 01:29:32;;;;;;;9.68;5.32;;;;;;;9.17;100.00;98567.63;5013191;28;20017;-72
2023/04/29 01:32:04;;;;;;;11.50;5.75;;;;;;;9.20;100.00;98580.72;5014617;28;20140;-72
2023/04/29 01:34:33;;;;;;;8.43;5.65;;;;;;;9.22;100.00;98578.63;4984393;28;20162;-71
2023/04/29 01:37:09;;;;;;;10.23;5.53;;;;;;;9.15;100.00;98575.91;5014304;28;20423;-71
2023/04/29 01:39:40;;;;;;;11.02;6.40;;;;;;;9.16;100.00;98582.13;5031499;28;20029;-72
2023/04/29 01:42:35;;;;;;;12.48;6.25;;;;;;;9.12;100.00;98575.50;5013325;28;20029;-72
2023/04/29 01:45:05;;;;;;;10.13;5.65;;;;;;;9.03;100.00;98568.56;5014961;28;20039;-73
2023/04/29 01:47:31;;;;;;;10.77;6.50;;;;;;;8.99;100.00;98555.47;5016542;28;20036;-72
2023/04/29 01:49:56;;;;;;;10.25;5.80;;;;;;;9.11;100.00;98571.94;4995441;28;20013;-73
2023/04/29 01:52:22;;;;;;;9.63;4.72;;;;;;;8.98;100.00;98570.00;5015810;28;20040;-72
2023/04/29 01:54:47;;;;;;;9.45;4.20;;;;;;;8.87;100.00;98578.66;4997040;28;20044;-71
2023/04/29 01:57:13;;;;;;;8.23;4.72;;;;;;;8.64;100.00;98556.50;5009781;28;20018;-72
2023/04/29 01:59:39;;;;;;;6.95;5.13;;;;;;;8.48;100.00;98544.16;5019867;28;20361;-71
2023/04/29 02:02:04;;;;;;;7.78;5.20;;;;;;;8.72;100.00;98569.81;5003504;28;20152;-71
2023/04/29 02:04:32;;;;;;;8.13;5.28;;;;;;;8.73;100.00;98580.44;5020031;28;20026;-71
2023/04/29 02:06:57;;;;;;;10.05;5.75;;;;;;;8.74;100.00;98581.25;5001149;28;20480;-71
2023/04/29 02:09:23;;;;;;;9.82;5.53;;;;;;;8.55;100.00;98567.44;4996423;28;20032;-71
2023/04/29 02:11:48;;;;;;;6.97;4.75;;;;;;;8.49;100.00;98568.22;4995501;28;20045;-73
2023/04/29 02:14:14;;;;;;;6.00;4.38;;;;;;;8.39;100.00;98558.78;5012849;28;20029;-72
2023/04/29 02:16:39;;;;;;;7.00;4.15;;;;;;;8.45;100.00;98580.41;5013036;28;20099;-71
2023/04/29 02:19:04;;;;;;;14.30;6.03;;;;;;;8.44;100.00;98577.94;4996637;28;20046;-71
2023/04/29 02:21:30;;;;;;;31.73;6.10;;;;;;;8.33;100.00;98572.00;4997026;28;20028;-72
2023/04/29 02:23:56;;;;;;;26.45;5.57;;;;;;;8.24;100.00;98577.72;4993850;28;20117;-72
2023/04/29 02:26:22;;;;;;;10.45;5.22;;;;;;;8.28;100.00;98590.63;5019731;28;20048;-71
2023/04/29 02:28:47;;;;;;;15.25;5.45;;;;;;;8.07;100.00;98561.84;4998571;28;20034;-71
2023/04/29 02:31:13;;;;;;;18.15;4.95;;;;;;;8.16;100.00;98580.56;5006964;28;20043;-71
2023/04/29 02:33:38;;;;;;;9.07;4.63;;;;;;;8.10;100.00;98572.22;5012118;28;20030;-72
2023/04/29 02:36:04;;;;;;;15.25;4.88;;;;;;;8.13;100.00;98584.47;5143958;22;20045;-59
2023/04/29 02:38:29;;;;;;;13.90;5.32;;;;;;;8.14;100.00;98594.22;5045657;28;20024;-59
2023/04/29 02:40:54;;;;;;;8.68;5.00;;;;;;;8.09;100.00;98584.00;5035531;28;20115;-59
2023/04/29 02:43:20;;;;;;;18.42;5.63;;;;;;;8.10;100.00;98591.09;5044443;28;20029;-59
2023/04/29 02:45:45;;;;;;;12.77;5.45;;;;;;;8.11;100.00;98584.66;5024624;28;20024;-59
2023/04/29 02:48:11;;;;;;;11.80;4.50;;;;;;;8.03;100.00;98584.78;5036264;28;20040;-59
2023/04/29 02:50:36;;;;;;;8.98;4.65;;;;;;;8.04;100.00;98586.47;5042605;28;20036;-59
2023/04/29 02:53:01;;;;;;;8.93;5.32;;;;;;;8.08;100.00;98590.44;5044657;28;20028;-59
2023/04/29 02:55:27;;;;;;;15.88;4.93;;;;;;;7.99;100.00;98586.22;5042311;28;20460;-59
2023/04/29 02:57:52;;;;;;;7.55;4.40;;;;;;;7.88;100.00;98587.53;5039609;28;20039;-60
2023/04/29 03:00:18;;;;;;;9.52;5.13;;;;;;;7.86;100.00;98581.53;5054232;28;20055;-65
2023/04/29 03:02:44;;;;;;;13.63;5.43;;;;;;;7.77;100.00;98587.22;5036484;28;20035;-65
2023/04/29 03:05:09;;;;;;;6.47;4.20;;;;;;;7.79;100.00;98585.16;5039795;28;20430;-65
2023/04/29 03:07:35;;;;;;;9.30;4.57;;;;;;;7.70;100.00;98587.13;5051705;28;20066;-64
2023/04/29 03:10:00;;;;;;;12.18;5.55;;;;;;;7.71;100.00;98587.97;5036203;28;20472;-64
2023/04/29 03:12:27;;;;;;;8.52;4.68;;;;;;;7.81;100.00;98583.94;5044112;28;20370;-64
2023/04/29 03:14:52;;;;;;;12.02;5.45;;;;;;;7.78;100.00;98584.34;5031573;28;20021;-65
2023/04/29 03:17:18;;;;;;;10.48;5.32;;;;;;;7.73;100.00;98594.84;5032839;28;20063;-65
2023/04/29 03:19:43;;;;;;;13.43;4.35;;;;;;;7.62;100.00;98582.72;5037057;28;20050;-59
2023/04/29 03:22:10;;;;;;;6.50;4.50;;;;;;;7.51;100.00;98593.97;5050933;28;20428;-59
2023/04/29 03:24:36;;;;;;;6.75;4.55;;;;;;;7.49;100.00;98597.84;5030740;28;20052;-59
2023/04/29 03:27:03;;;;;;;6.07;4.25;;;;;;;7.44;100.00;98584.97;5041504;28;20029;-59
2023/04/29 03:29:28;;;;;;;16.00;4.53;;;;;;;7.39;100.00;98590.94;5019748;28;20012;-59
2023/04/29 03:31:55;;;;;;;21.67;4.60;;;;;;;7.37;100.00;98587.59;5035736;28;20037;-59
2023/04/29 03:34:21;;;;;;;7.70;4.43;;;;;;;7.35;100.00;98583.41;5027545;28;20461;-59
2023/04/29 03:36:46;;;;;;;12.45;4.40;;;;;;;7.34;100.00;98585.28;5033319;28;20060;-59
2023/04/29 03:39:12;;;;;;;20.10;4.93;;;;;;;7.39;100.00;98585.53;5035766;28;20025;-59
2023/04/29 03:41:37;;;;;;;6.55;3.97;;;;;;;7.51;100.00;98591.25;5052344;28;20033;-59
2023/04/29 03:44:03;;;;;;;15.88;4.63;;;;;;;7.59;100.00;98593.00;5031676;28;20047;-59
2023/04/29 03:46:30;;;;;;;10.93;5.20;;;;;;;7.57;100.00;98595.91;5025483;28;20370;-63
2023/04/29 03:48:56;;;;;;;10.18;4.30;;;;;;;7.61;100.00;98588.28;5021978;28;20033;-59
2023/04/29 03:51:23;;;;;;;16.33;5.75;;;;;;;7.57;100.00;98592.34;5035007;28;20373;-59
2023/04/29 03:53:48;;;;;;;12.57;5.78;;;;;;;7.56;100.00;98599.59;5014510;28;20082;-59
2023/04/29 03:56:14;;;;;;;23.50;7.78;;;;;;;7.67;100.00;98596.41;5030172;28;20852;-60
2023/04/29 03:58:40;;;;;;;7.50;4.72;;;;;;;7.86;100.00;98591.47;5036150;28;20082;-59
2023/04/29 04:01:10;;;;;;;12.25;5.80;;;;;;;7.88;100.00;98597.47;5032788;28;20021;-59
2023/04/29 04:03:36;;;;;;;35.50;5.85;;;;;;;7.93;100.00;98603.13;5029264;28;20025;-65
2023/04/29 04:06:16;;;;;;;17.00;5.43;;;;;;;8.08;100.00;98597.69;5034080;28;20546;-65
2023/04/29 04:08:46;;;;;;;9.52;5.25;;;;;;;8.13;100.00;98609.56;5033656;28;20036;-65
2023/04/29 04:11:30;;;;;;;14.82;5.47;;;;;;;8.32;100.00;98608.06;5034446;28;20111;-64
2023/04/29 04:13:58;;;;;;;9.23;5.47;;;;;;;8.37;100.00;98612.06;5015288;28;20547;-65
2023/04/29 04:16:23;;;;;;;13.13;6.18;;;;;;;8.46;100.00;98609.06;5037586;28;20391;-65
2023/04/29 04:18:48;;;;;;;8.73;5.60;;;;;;;8.54;100.00;98613.47;5034394;28;20025;-64
2023/04/29 04:21:14;;;;;;;11.23;5.55;;;;;;;8.58;100.00;98620.13;5031447;28;20028;-65
2023/04/29 04:23:40;;;;;;;12.55;5.97;;;;;;;8.59;100.00;98618.28;5037509;28;20020;-65
2023/04/29 04:26:08;;;;;;;14.55;6.63;;;;;;;8.59;100.00;98615.56;5036366;28;20554;-64
2023/04/29 04:28:33;;;;;;;10.70;5.32;;;;;;;8.63;100.00;98622.25;5036186;28;20102;-64
2023/04/29 04:31:02;;;;;;;10.93;5.25;;;;;;;8.68;100.00;98623.34;5039478;28;20468;-64
2023/04/29 04:33:28;;;;;;;10.65;4.88;;;;;;;8.63;100.00;98628.47;5036056;28;20035;-64
2023/04/29 04:35:53;;;;;;;7.43;4.60;;;;;;;8.63;100.00;98633.88;5041311;28;20033;-64
2023/04/29 04:38:18;;;;;;;6.65;4.18;;;;;;;8.62;100.00;98651.09;5035033;28;20423;-64
2023/04/29 04:40:51;;;;;;;5.40;4.25;;;;;;;8.70;100.00;98636.63;5036040;28;20108;-64
2023/04/29 04:43:16;;;;;;;6.85;4.40;;;;;;;8.82;100.00;98647.72;5022406;28;20040;-59
2023/04/29 04:45:42;;;;;;;5.80;4.30;;;;;;;8.91;100.00;98652.78;5041467;28;20020;-59
2023/04/29 04:48:07;;;;;;;6.10;4.75;;;;;;;8.94;100.00;98651.56;5040386;28;20035;-59
2023/04/29 04:50:32;;;;;;;8.57;5.28;;;;;;;9.04;100.00;98643.09;5040427;28;20028;-65
2023/04/29 04:52:58;;;;;;;11.32;6.05;;;;;;;9.01;100.00;98652.41;5039735;28;20052;-65
2023/04/29 04:55:27;;;;;;;13.20;7.03;;;;;;;9.03;100.00;98649.53;5048737;28;20104;-66
2023/04/29 04:57:52;;;;;;;13.43;6.88;;;;;;;9.27;100.00;98662.53;5040359;28;20075;-65
2023/04/29 05:00:21;;;;;;;13.25;6.80;;;;;;;9.39;100.00;98662.84;5040135;28;20461;-65
2023/04/29 05:02:47;;;;;;;15.45;7.35;;;;;;;9.58;100.00;98662.09;5037657;28;20029;-65
2023/04/29 05:05:12;;;;;;;10.70;6.65;;;;;;;9.68;100.00;98663.59;5035235;28;20473;-64
2023/04/29 05:07:38;;;;;;;15.50;8.05;;;;;;;9.93;100.00;98664.75;5035555;28;20883;-65
2023/04/29 05:10:05;;;;;;;15.00;7.30;;;;;;;10.15;100.00;98670.00;5032587;28;20067;-59
2023/04/29 05:12:31;;;;;;;11.57;7.00;;;;;;;10.23;100.00;98667.13;5046005;28;20029;-59
2023/04/29 05:14:57;;;;;;;11.50;6.88;;;;;;;10.29;100.00;98677.97;5046326;28;20118;-59
2023/04/29 05:17:23;;;;;;;10.38;6.80;;;;;;;10.39;100.00;98676.75;5035751;28;20051;-59
2023/04/29 05:19:49;;;;;;;11.27;7.28;;;;;;;10.33;100.00;98683.00;5036124;28;20109;-59
2023/04/29 05:22:14;;;;;;;9.80;6.07;;;;;;;10.40;100.00;98698.19;5037172;28;20193;-59
2023/04/29 05:24:40;;;;;;;10.75;5.40;;;;;;;10.47;100.00;98684.66;5034234;28;20037;-59
2023/04/29 05:27:05;;;;;;;9.38;5.10;;;;;;;10.55;100.00;98695.28;5040792;28;20021;-59
2023/04/29 05:29:31;;;;;;;9.40;5.65;;;;;;;10.58;100.00;98704.88;5032237;28;20025;-65
2023/04/29 05:31:56;;;;;;;9.23;6.05;;;;;;;10.62;100.00;98709.66;5038963;28;20032;-64
2023/04/29 05:34:22;;;;;;;12.52;7.20;;;;;;;10.50;100.00;98705.88;5031212;28;20041;-64
2023/04/29 05:36:47;;;;;;;9.50;6.82;;;;;;;10.58;100.00;98718.38;5043492;28;20037;-65
2023/04/29 05:39:13;;;;;;;9.38;6.30;;;;;;;10.77;100.00;98714.03;5035571;28;20036;-65
2023/04/29 05:41:38;;;;;;;10.13;6.85;;;;;;;10.98;100.00;98724.69;5047063;28;20491;-65
2023/04/29 05:44:04;;;;;;;10.10;7.18;;;;;;;11.29;100.00;98723.19;5034690;28;20028;-65
2023/04/29 05:46:29;;;;;;;10.25;6.53;;;;;;;11.66;100.00;98723.56;5045838;28;20016;-65
2023/04/29 05:48:55;;;;;;;13.38;5.97;;;;;;;11.99;100.00;98731.63;5036607;28;20609;-64
2023/04/29 05:51:20;;;;;;;10.68;5.57;;;;;;;12.20;100.00;98730.50;5032663;28;20132;-64
2023/04/29 05:53:46;;;;;;;7.35;5.47;;;;;;;12.14;100.00;98720.53;5054037;28;20025;-64
2023/04/29 05:56:11;;;;;;;7.00;4.85;;;;;;;12.21;100.00;98726.75;5035274;28;20057;-64
2023/04/29 05:58:36;;;;;;;5.95;4.78;;;;;;;12.31;100.00;98721.66;5036879;28;20045;-64
2023/04/29 06:01:03;;;;;;;8.93;5.13;;;;;;;12.32;100.00;98715.22;5030263;28;20032;-64
2023/04/29 06:03:29;;;;;;;5.90;4.05;;;;;;;12.41;100.00;98704.94;5027913;28;20075;-64
2023/04/29 06:05:55;;;;;;;6.43;3.80;;;;;;;12.77;100.00;98698.84;5029802;28;20025;-64
2023/04/29 06:08:20;;;;;;;6.15;4.22;;;;;;;13.13;100.00;98694.59;5036765;28;20423;-64
2023/04/29 06:10:46;;;;;;;6.00;4.50;;;;;;;13.55;100.00;98678.56;5035563;28;20029;-65
2023/04/29 06:13:11;;;;;;;6.72;4.88;;;;;;;14.17;100.00;98679.28;5038964;28;20025;-64
2023/04/29 06:15:37;;;;;;;6.35;4.50;;;;;;;15.15;100.00;98671.72;5037242;28;20021;-65
2023/04/29 06:18:02;;;;;;;4.95;3.88;;;;;;;16.03;100.00;98645.28;5040524;28;20094;-65
2023/04/29 06:20:28;;;;;;;3.65;3.22;;;;;;;17.14;100.00;98622.13;5048763;28;20025;-65
2023/04/29 06:22:53;;;;;;;4.05;3.10;;;;;;;16.84;100.00;98618.66;5042422;28;20033;-65
2023/04/29 06:25:21;;;;;;;4.13;3.38;;;;;;;16.05;100.00;98626.78;5032922;28;20032;-65
2023/04/29 06:27:48;;;;;;;3.92;3.22;;;;;;;15.24;100.00;98634.03;5030246;28;20548;-65
2023/04/29 06:30:13;;;;;;;5.45;3.28;;;;;;;14.83;100.00;98641.25;5039301;28;20064;-65
2023/04/29 06:32:39;;;;;;;5.30;3.45;;;;;;;14.47;100.00;98648.50;5047460;28;20052;-65
2023/04/29 06:35:05;;;;;;;4.90;3.38;;;;;;;14.47;100.00;98643.03;5038879;28;20029;-65
2023/04/29 06:37:30;;;;;;;6.53;3.50;;;;;;;14.29;100.00;98646.66;5042748;28;20529;-65
2023/04/29 06:39:56;;;;;;;4.65;3.58;;;;;;;14.31;100.00;98641.00;5034361;28;20025;-65
2023/04/29 06:42:21;;;;;;;4.88;3.47;;;;;;;14.38;100.00;98660.75;5042663;28;20118;-65
2023/04/29 06:44:46;;;;;;;4.93;3.40;;;;;;;14.62;100.00;98661.72;5030176;28;20389;-65
2023/04/29 06:47:12;;;;;;;4.10;3.20;;;;;;;14.86;100.00;98652.50;5036454;28;20477;-65
2023/04/29 06:49:37;;;;;;;3.72;2.92;;;;;;;15.02;100.00;98652.88;5035002;28;20361;-60
2023/04/29 06:52:03;;;;;;;3.45;2.78;;;;;;;15.45;100.00;98643.50;5040775;28;20090;-59
2023/04/29 06:54:28;;;;;;;4.45;2.33;;;;;;;15.78;100.00;98643.72;5032868;28;20025;-60
2023/04/29 06:56:54;;;;;;;3.47;1.88;;;;;;;16.07;100.00;98640.19;5039322;28;20447;-60
2023/04/29 06:59:19;;;;;;;3.10;2.10;;;;;;;15.91;100.00;98645.34;5029173;28;20431;-60
2023/04/29 07:01:45;;;;;;;3.15;2.00;;;;;;;15.61;100.00;98652.84;5038424;28;20116;-60
2023/04/29 07:04:11;;;;;;;3.38;1.92;;;;;;;15.47;100.00;98650.38;5034595;28;20239;-60
2023/04/29 07:06:37;;;;;;;5.22;2.03;;;;;;;15.37;100.00;98650.16;5040889;28;21260;-60
2023/04/29 07:09:03;;;;;;;1.85;1.70;;;;;;;15.30;100.00;98655.72;5032336;28;20033;-60
2023/04/29 07:11:28;;;;;;;3.80;1.60;;;;;;;15.07;100.00;98659.28;5044725;28;20021;-60
2023/04/29 07:13:54;;;;;;;4.50;1.70;;;;;;;14.87;100.00;98666.94;5038250;28;20484;-60
2023/04/29 07:16:21;;;;;;;3.60;1.42;;;;;;;14.71;100.00;98673.91;5038264;28;20447;-58
2023/04/29 07:18:49;;;;;;;2.13;1.60;;;;;;;14.56;100.00;98668.06;5035843;28;20078;-58
2023/04/29 07:21:15;;;;;;;3.15;1.50;;;;;;;14.71;100.00;98681.25;5044966;28;20059;-62
2023/04/29 07:23:40;;;;;;;2.05;1.58;;;;;;;14.67;100.00;98681.72;5046623;28;20037;-58
2023/04/29 07:26:16;;;;;;;2.33;1.42;;;;;;;14.67;100.00;98667.25;5032270;28;20036;-59
2023/04/29 07:28:42;;;;;;;2.08;1.52;;;;;;;14.82;100.00;98684.00;5037137;28;20043;-59
2023/04/29 07:31:08;;;;;;;4.28;1.80;;;;;;;14.78;100.00;98682.00;5038821;28;20396;-58
2023/04/29 07:33:34;;;;;;;2.47;1.60;;;;;;;14.79;100.00;98680.91;5037727;28;20029;-59
2023/04/29 07:36:01;;;;;;;1.83;1.58;;;;;;;14.88;100.00;98690.38;5047291;28;20025;-59
2023/04/29 07:38:26;;;;;;;3.42;1.73;;;;;;;15.14;100.00;98689.13;5040594;28;20029;-59
2023/04/29 07:40:52;;;;;;;2.00;1.52;;;;;;;15.20;100.00;98692.81;5051005;28;20361;-60
2023/04/29 07:43:18;;;;;;;4.68;1.60;;;;;;;15.35;100.00;98695.88;5037942;28;20033;-60
2023/04/29 07:45:43;;;;;;;2.10;1.60;;;;;;;15.53;100.00;98693.03;5033647;28;20029;-65
2023/04/29 07:48:08;;;;;;;2.60;1.95;;;;;;;15.67;100.00;98696.38;5036705;28;20033;-65
2023/04/29 07:50:35;;;;;;;2.38;1.63;;;;;;;15.70;100.00;98703.28;5035059;28;20017;-65
2023/04/29 07:53:07;;;;;;;1.80;1.50;;;;;;;15.65;100.00;98700.41;5036959;28;20021;-65
2023/04/29 07:55:32;;;;;;;2.08;1.70;;;;;;;15.53;100.00;98703.94;5035535;28;20027;-65
2023/04/29 07:57:59;;;;;;;2.47;1.88;;;;;;;15.51;100.00;98700.66;5033631;28;20380;-66
2023/04/29 08:00:25;;;;;;;3.60;2.05;;;;;;;15.47;100.00;98704.06;5045881;28;20020;-65
2023/04/29 08:02:52;;;;;;;2.22;1.70;;;;;;;15.50;100.00;98709.88;5032395;28;20036;-59
2023/04/29 08:05:18;;;;;;;3.22;1.52;;;;;;;15.91;100.00;98719.00;5044565;28;20055;-61
2023/04/29 08:07:43;;;;;;;2.47;1.73;;;;;;;15.96;100.00;98715.56;5037557;28;20029;-73
2023/04/29 08:10:09;;;;;;;2.05;1.40;;;;;;;15.90;100.00;98716.50;5050853;28;20353;-65
2023/04/29 08:12:34;;;;;;;2.40;1.60;;;;;;;16.37;100.00;98711.78;5045311;28;20033;-65
2023/04/29 08:15:00;;;;;;;5.07;2.17;;;;;;;16.77;100.00;98715.50;5036910;28;20028;-65
2023/04/29 08:17:25;;;;;;;2.80;1.63;;;;;;;16.96;100.00;98724.34;5032037;28;20033;-59
2023/04/29 08:19:51;;;;;;;3.47;1.60;;;;;;;17.03;100.00;98714.91;5043509;28;20056;-60
2023/04/29 08:22:16;;;;;;;3.67;1.60;;;;;;;16.93;100.00;98716.63;5034853;28;20020;-60
2023/04/29 08:24:42;;;;;;;5.03;1.60;;;;;;;17.08;100.00;98727.81;5023453;28;20025;-60
2023/04/29 08:27:07;;;;;;;3.20;1.42;;;;;;;17.09;100.00;98718.56;5032979;28;20029;-60
2023/04/29 08:29:33;;;;;;;2.17;1.20;;;;;;;16.97;100.00;98724.06;5041870;28;20491;-60
2023/04/29 08:31:59;;;;;;;3.38;1.35;;;;;;;16.82;100.00;98730.13;5038714;28;20035;-60
2023/04/29 08:34:25;;;;;;;1.50;1.10;;;;;;;16.99;100.00;98727.41;5035980;28;20025;-60
2023/04/29 08:36:52;;;;;;;2.90;1.45;;;;;;;16.90;100.00;98726.16;5035986;22;20516;-58
2023/04/29 08:39:17;;;;;;;2.08;1.35;;;;;;;16.98;100.00;98719.47;5002105;28;20084;-58
2023/04/29 08:41:50;;;;;;;2.15;1.23;;;;;;;16.91;100.00;98729.72;4994892;28;20117;-58
2023/04/29 08:44:16;;;;;;;3.22;1.60;;;;;;;17.28;100.00;98719.94;4986240;28;20048;-58
2023/04/29 08:46:44;;;;;;;1.65;1.40;;;;;;;17.59;100.00;98739.56;4995303;28;20029;-58
2023/04/29 08:49:10;;;;;;;1.83;1.20;;;;;;;18.05;100.00;98731.22;5005630;28;20022;-58
2023/04/29 08:51:35;;;;;;;2.05;1.30;;;;;;;18.77;100.00;98728.25;4992714;28;20053;-58
2023/04/29 08:54:01;;;;;;;3.08;1.05;;;;;;;20.60;100.00;98718.78;4988229;28;20056;-58
2023/04/29 08:56:29;;;;;;;2.08;1.38;;;;;;;20.63;100.00;98717.41;4993386;28;20083;-58
2023/04/29 08:58:57;;;;;;;2.83;1.38;;;;;;;20.11;100.00;98725.41;4992433;28;20030;-58
2023/04/29 09:01:27;;;;;;;1.75;1.42;;;;;;;20.13;100.00;98722.41;4996694;28;20033;-58
2023/04/29 09:04:08;;;;;;;1.83;1.48;;;;;;;19.99;100.00;98738.56;4995788;28;20033;-58
2023/04/29 09:06:34;;;;;;;2.40;1.30;;;;;;;19.91;100.00;98731.66;4996155;28;20030;-58
2023/04/29 09:09:02;;;;;;;2.17;1.30;;;;;;;19.70;100.00;98724.38;4998490;28;20022;-58
2023/04/29 09:11:29;;;;;;;2.05;1.20;;;;;;;19.41;100.00;98729.34;4989828;28;20025;-58
2023/04/29 09:14:00;;;;;;;2.38;1.40;;;;;;;19.33;100.00;98730.66;4988589;28;20488;-58
2023/04/29 09:16:26;;;;;;;2.13;1.50;;;;;;;19.40;100.00;98730.44;4989694;28;20370;-58
2023/04/29 09:18:53;;;;;;;2.33;1.63;;;;;;;19.04;100.00;98736.44;5001417;28;20029;-58
2023/04/29 09:21:26;;;;;;;4.85;1.50;;;;;;;19.32;100.00;98740.00;4995963;28;20053;-58
2023/04/29 09:23:57;;;;;;;1.70;1.40;;;;;;;18.75;100.00;98738.63;4992740;28;20057;-58
2023/04/29 09:26:23;;;;;;;1.70;1.38;;;;;;;18.99;100.00;98739.19;5004547;28;20030;-58
2023/04/29 09:29:17;;;;;;;3.15;1.38;;;;;;;18.71;100.00;98737.47;4999979;28;20068;-58
2023/04/29 09:31:43;;;;;;;5.10;1.55;;;;;;;18.39;100.00;98745.59;5005172;28;20493;-58
2023/04/29 09:34:10;;;;;;;3.63;1.70;;;;;;;17.96;100.00;98741.78;4992699;28;20030;-58
2023/04/29 09:36:43;;;;;;;2.78;1.55;;;;;;;18.19;100.00;98748.94;4991329;28;20038;-58
2023/04/29 09:39:16;;;;;;;2.20;1.70;;;;;;;18.33;100.00;98750.19;4997144;28;20025;-58
2023/04/29 09:42:02;;;;;;;1.95;1.33;;;;;;;17.96;100.00;98750.00;5003561;28;20022;-58
2023/04/29 09:44:30;;;;;;;2.00;1.50;;;;;;;17.52;100.00;98756.16;4989180;28;20045;-57
2023/04/29 09:47:07;;;;;;;2.22;1.58;;;;;;;17.19;100.00;98756.19;4995718;28;20037;-57
2023/04/29 09:49:39;;;;;;;4.10;2.35;;;;;;;17.04;100.00;98762.19;4993383;28;20037;-57
2023/04/29 09:52:09;;;;;;;3.97;2.20;;;;;;;16.83;100.00;98761.00;4994098;28;20117;-57
2023/04/29 09:54:37;;;;;;;4.10;2.00;;;;;;;16.55;100.00;98768.06;5012433;28;20041;-57
2023/04/29 09:57:06;;;;;;;3.45;2.10;;;;;;;16.20;100.00;98771.75;4994690;28;20267;-56
2023/04/29 09:59:34;;;;;;;;;;;;;;;16.01;100.00;98772.97;4996453;28;20045;-57
2023/04/29 10:02:02;;;;;;;3.95;3.05;;;;;;;15.72;100.00;98777.50;4997921;28;19920;-57
2023/04/29 10:04:31;;;;;;;4.93;3.70;;;;;;;15.60;100.00;98776.63;5004624;28;20036;-56
2023/04/29 10:06:57;;;;;;;4.03;3.22;;;;;;;15.60;100.00;98782.09;4994646;28;20449;-57
2023/04/29 10:09:23;;;;;;;8.65;3.97;;;;;;;15.68;100.00;98784.47;4995982;28;20470;-56
2023/04/29 10:11:50;;;;;;;5.68;3.45;;;;;;;16.06;100.00;98785.88;4996140;28;20029;-56
2023/04/29 10:14:20;;;;;;;7.43;3.45;;;;;;;16.68;100.00;98769.69;4996715;28;20025;-55
2023/04/29 10:17:07;;;;;;;5.18;3.70;;;;;;;17.47;100.00;98777.13;4994630;28;20034;-54
2023/04/29 10:19:51;;;;;;;8.00;3.70;;;;;;;18.03;100.00;98777.19;4992656;28;20140;-54
2023/04/29 10:22:28;;;;;;;5.57;3.28;;;;;;;18.33;100.00;98782.22;4993920;28;20049;-57
2023/04/29 10:24:55;;;;;;;4.57;3.42;;;;;;;18.35;100.00;98772.69;5000253;28;20036;-56
2023/04/29 10:27:21;;;;;;;4.80;3.08;;;;;;;18.61;100.00;98782.03;4997006;28;20026;-57
2023/04/29 10:29:49;;;;;;;7.05;3.63;;;;;;;18.69;100.00;98747.88;4990613;28;20029;-57
2023/04/29 10:32:16;;;;;;;5.05;3.67;;;;;;;18.74;100.00;98778.06;4991786;28;20092;-57
2023/04/29 10:34:42;;;;;;;4.20;3.33;;;;;;;18.87;100.00;98770.56;5005995;28;20068;-57
2023/04/29 10:37:12;;;;;;;6.35;4.60;;;;;;;18.93;100.00;98775.84;5017565;28;20489;-56
2023/04/29 10:40:04;;;;;;;6.32;4.03;;;;;;;19.49;100.00;98765.38;4989577;28;20437;-57
2023/04/29 10:42:43;;;;;;;5.50;3.50;;;;;;;20.20;100.00;98772.47;4994205;28;20040;-57
2023/04/29 10:45:22;;;;;;;7.15;3.58;;;;;;;20.42;100.00;98766.78;5007066;28;20040;-57
2023/04/29 10:48:05;;;;;;;4.72;3.30;;;;;;;20.55;100.00;98766.31;5008118;28;20041;-54
2023/04/29 10:50:32;;;;;;;6.28;4.30;;;;;;;20.34;100.00;98756.31;4989254;28;20018;-54
2023/04/29 10:53:01;;;;;;;7.95;4.40;;;;;;;19.93;100.00;98762.41;5002285;28;20124;-54
2023/04/29 10:55:27;;;;;;;7.85;5.13;;;;;;;19.83;100.00;98758.75;5002396;28;20120;-56
2023/04/29 10:57:55;;;;;;;5.25;3.70;;;;;;;19.35;100.00;98757.84;4994198;28;20121;-59
2023/04/29 11:00:25;;;;;;;7.67;3.70;;;;;;;19.07;100.00;98769.94;4998671;28;20064;-59
2023/04/29 11:02:52;;;;;;;4.93;3.60;;;;;;;18.88;100.00;98762.06;5007907;28;20026;-60
2023/04/29 11:05:35;;;;;;;7.75;4.03;;;;;;;18.22;100.00;98775.81;5013446;28;20029;-60
2023/04/29 11:08:22;;;;;;;6.88;4.03;;;;;;;18.20;100.00;98766.19;4998369;28;20026;-60
2023/04/29 11:10:51;;;;;;;5.43;3.70;;;;;;;18.12;100.00;98768.28;4991735;28;20504;-59
2023/04/29 11:13:27;;;;;;;7.20;3.72;;;;;;;18.15;100.00;98764.19;4990558;28;20065;-59
2023/04/29 11:16:07;;;;;;;5.65;4.00;;;;;;;17.84;100.00;98768.41;4994609;28;20026;-59
2023/04/29 11:18:34;;;;;;;5.97;3.97;;;;;;;17.72;100.00;98763.84;4987480;28;20462;-59
2023/04/29 11:21:06;;;;;;;6.18;3.70;;;;;;;17.73;100.00;98768.22;4990982;28;20628;-59
2023/04/29 11:23:35;;;;;;;10.18;3.42;;;;;;;17.88;100.00;98767.66;5011285;28;20025;-59
2023/04/29 11:26:01;;;;;;;8.27;3.88;;;;;;;17.81;100.00;98764.28;5006520;28;20032;-59
2023/04/29 11:28:28;;;;;;;4.07;3.03;;;;;;;18.23;100.00;98765.66;4994049;28;20369;-59
2023/04/29 11:30:56;;;;;;;4.93;3.17;;;;;;;18.67;100.00;98766.47;4988120;28;20477;-59